Pagina principale
METAR-TAF:

METAR-TAF

Aeroporti :

Aeroporto di Niamey-Diori Hamani

Niamey, Niger

latitudine: 13-29N, longitudine: 002-10E, altezza: 223 m

Osservazione

Il bollettino è stato emesso 1 ora e 1 minuti fa, alle 07:00 UTC
Vento 2 kt da est
Temperature 21°C
Umidità 25%
Pressione 1013 hPa
Visibilità: 8000 m

METAR: DRRN 060700Z 09002KT 8000 NSC 21/M00 Q1013 TEMPO 4500 DU

Ora: 09:01 (08:01 UTC)

Previsione

Il bollettino è stato emesso 3 ore e 1 minuti fa, alle 05:00 UTC
Previsione valida dal 06 alle 06 UTC al 07 alle 12 UTC
Vento 8 kt da est
Visibilità: 8000 m
Temporaneamente
dal 06 alle 07 UTC al 06 alle 09 UTC
Visibilità: 4500 m
polvere diffusa
Temporaneamente
dal 06 alle 09 UTC al 06 alle 12 UTC
Vento 18 kt da est

TAF: DRRN 060500Z 0606/0712 08008KT 8000 NSC TEMPO 0607/0609 4500 DU TEMPO 0609/0612 10018KT

Osservazioni e previsioni meteorologiche di più di 4000 aeroporti (messaggi METAR e TAF).

Le stazioni disponibili sono rappresentate dai dischi gialli e rossi sulla carta.

Puntare il mouse per vedere il nome della stazione.

Clicca sopra per visualizzare le osservazioni e previsioni meteorologiche.

Per cambiare la mappa : fare clic sui pulsanti verdi con una croce nera per ingrandire, il pulsante verde con un trattino per diminuire, o sulla freccia verde per le mappe adiacenti.


METAR-TAF: